Time,TemperatureF,DewpointF,PressureIn,WindDirection,WindDirectionDegrees,WindSpeedMPH,WindSpeedGustMPH,Humidity,HourlyPrecipIn,Conditions,Clouds,dailyrainin,SolarRadiationWatts/m^2,SoftwareType,DateUTC
2013-02-14 00:02:00,58.0,54.0,-100.00,North,2,0.0,0.0,87,0.00,,,0.00,0.000000,,2013-02-14 10:02:00,
2013-02-14 00:11:00,58.0,54.0,-100.00,North,2,0.0,0.0,87,0.00,,,0.00,0.000000,,2013-02-14 10:11:00,
2013-02-14 00:21:00,58.0,54.0,-100.00,North,2,0.0,0.0,87,0.00,,,0.00,0.000000,,2013-02-14 10:21:00,
2013-02-14 00:31:00,58.0,54.0,-100.00,North,2,0.0,0.0,87,0.00,,,0.00,0.000000,,2013-02-14 10:31:00,
2013-02-14 00:52:00,59.0,51.0,-100.00,NE,45,4.0,12.0,75,0.00,,,0.00,0.000000,,2013-02-14 10:52:00,
2013-02-14 01:01:00,59.0,51.0,-100.00,NE,45,4.0,12.0,75,0.00,,,0.00,0.000000,,2013-02-14 11:01:00,
2013-02-14 01:11:00,59.0,51.0,-100.00,NE,45,4.0,12.0,75,0.00,,,0.00,0.000000,,2013-02-14 11:11:00,
2013-02-14 01:21:00,59.0,51.0,-100.00,NE,45,4.0,12.0,75,0.00,,,0.00,0.000000,,2013-02-14 11:21:00,
2013-02-14 01:31:00,59.0,51.0,-100.00,NE,45,4.0,12.0,75,0.00,,,0.00,0.000000,,2013-02-14 11:31:00,
2013-02-14 01:52:00,58.0,51.0,-100.00,ENE,73,2.0,13.0,77,0.00,,,0.00,0.000000,,2013-02-14 11:52:00,
2013-02-14 02:01:00,58.0,51.0,-100.00,ENE,73,2.0,13.0,77,0.00,,,0.00,0.000000,,2013-02-14 12:01:00,
2013-02-14 02:11:00,58.0,51.0,-100.00,ENE,73,2.0,13.0,77,0.00,,,0.00,0.000000,,2013-02-14 12:11:00,
2013-02-14 02:22:00,58.0,51.0,-100.00,ENE,73,2.0,13.0,77,0.00,,,0.00,0.000000,,2013-02-14 12:22:00,
2013-02-14 02:31:00,58.0,51.0,-100.00,ENE,73,2.0,13.0,77,0.00,,,0.00,0.000000,,2013-02-14 12:31:00,
2013-02-14 02:53:00,58.0,49.0,-100.00,NE,42,3.0,13.0,73,0.00,,,0.00,0.000000,,2013-02-14 12:53:00,
2013-02-14 03:01:00,58.0,49.0,-100.00,NE,42,3.0,13.0,73,0.00,,,0.00,0.000000,,2013-02-14 13:01:00,
2013-02-14 03:11:00,58.0,49.0,-100.00,NE,42,3.0,13.0,73,0.00,,,0.00,0.000000,,2013-02-14 13:11:00,
2013-02-14 03:21:00,58.0,49.0,-100.00,NE,42,3.0,13.0,73,0.00,,,0.00,0.000000,,2013-02-14 13:21:00,
2013-02-14 03:31:00,58.0,49.0,-100.00,NE,42,3.0,13.0,73,0.00,,,0.00,0.000000,,2013-02-14 13:31:00,
2013-02-14 04:01:00,58.0,50.0,-100.00,ENE,63,3.0,12.0,74,0.00,,,0.00,0.000000,,2013-02-14 14:01:00,
2013-02-14 04:11:00,58.0,50.0,-100.00,ENE,63,3.0,12.0,74,0.00,,,0.00,0.000000,,2013-02-14 14:11:00,
2013-02-14 04:21:00,58.0,50.0,-100.00,ENE,63,3.0,12.0,74,0.00,,,0.00,0.000000,,2013-02-14 14:21:00,
2013-02-14 04:31:00,58.0,50.0,-100.00,ENE,63,3.0,12.0,74,0.00,,,0.00,0.000000,,2013-02-14 14:31:00,
2013-02-14 04:52:00,58.0,49.0,-100.00,NE,55,5.0,14.0,71,0.00,,,0.00,0.000000,,2013-02-14 14:52:00,
2013-02-14 05:01:00,58.0,49.0,-100.00,NE,55,5.0,14.0,71,0.00,,,0.00,0.000000,,2013-02-14 15:01:00,
2013-02-14 05:11:00,58.0,49.0,-100.00,NE,55,5.0,14.0,71,0.00,,,0.00,0.000000,,2013-02-14 15:11:00,
2013-02-14 05:21:00,58.0,49.0,-100.00,NE,55,5.0,14.0,71,0.00,,,0.00,0.000000,,2013-02-14 15:21:00,
2013-02-14 05:31:00,58.0,49.0,-100.00,NE,55,5.0,14.0,71,0.00,,,0.00,0.000000,,2013-02-14 15:31:00,
2013-02-14 06:01:00,56.0,47.0,-100.00,NNE,31,1.0,9.0,73,0.00,,,0.00,0.000000,,2013-02-14 16:01:00,
2013-02-14 06:11:00,56.0,47.0,-100.00,NNE,31,1.0,9.0,73,0.00,,,0.00,0.000000,,2013-02-14 16:11:00,
2013-02-14 06:21:00,56.0,47.0,-100.00,NNE,31,1.0,9.0,73,0.00,,,0.00,0.000000,,2013-02-14 16:21:00,
2013-02-14 06:31:00,56.0,47.0,-100.00,NNE,31,1.0,9.0,73,0.00,,,0.00,0.000000,,2013-02-14 16:31:00,
2013-02-14 06:52:00,56.0,49.0,-100.00,NE,56,1.0,6.0,76,0.00,,,0.00,0.000000,,2013-02-14 16:52:00,
2013-02-14 07:01:00,56.0,49.0,-100.00,NE,56,1.0,6.0,76,0.00,,,0.00,0.000000,,2013-02-14 17:01:00,
2013-02-14 07:11:00,56.0,49.0,-100.00,NE,56,1.0,6.0,76,0.00,,,0.00,0.000000,,2013-02-14 17:11:00,
2013-02-14 07:21:00,56.0,49.0,-100.00,NE,56,1.0,6.0,76,0.00,,,0.00,0.000000,,2013-02-14 17:21:00,
2013-02-14 07:31:00,56.0,49.0,-100.00,NE,56,1.0,6.0,76,0.00,,,0.00,0.000000,,2013-02-14 17:31:00,
2013-02-14 08:01:00,58.0,49.0,-100.00,ENE,57,6.0,14.0,72,0.00,,,0.00,5.000000,,2013-02-14 18:01:00,
2013-02-14 08:11:00,58.0,49.0,-100.00,ENE,57,6.0,14.0,72,0.00,,,0.00,5.000000,,2013-02-14 18:11:00,
2013-02-14 08:22:00,58.0,49.0,-100.00,ENE,57,6.0,14.0,72,0.00,,,0.00,5.000000,,2013-02-14 18:22:00,
2013-02-14 08:31:00,58.0,49.0,-100.00,ENE,57,6.0,14.0,72,0.00,,,0.00,5.000000,,2013-02-14 18:31:00,
2013-02-14 09:02:00,63.0,51.0,-100.00,SW,226,0.0,9.0,65,0.00,,,0.00,159.000000,,2013-02-14 19:02:00,
2013-02-14 09:11:00,63.0,51.0,-100.00,SW,226,0.0,9.0,65,0.00,,,0.00,159.000000,,2013-02-14 19:11:00,
2013-02-14 09:21:00,63.0,51.0,-100.00,SW,226,0.0,9.0,65,0.00,,,0.00,159.000000,,2013-02-14 19:21:00,
2013-02-14 09:31:00,63.0,51.0,-100.00,SW,226,0.0,9.0,65,0.00,,,0.00,159.000000,,2013-02-14 19:31:00,
2013-02-14 10:01:00,63.0,51.0,-100.00,West,278,0.0,7.0,65,0.00,,,0.00,217.000000,,2013-02-14 20:01:00,
2013-02-14 10:11:00,63.0,51.0,-100.00,West,278,0.0,7.0,65,0.00,,,0.00,217.000000,,2013-02-14 20:11:00,
2013-02-14 10:21:00,63.0,51.0,-100.00,West,278,0.0,7.0,65,0.00,,,0.00,217.000000,,2013-02-14 20:21:00,
2013-02-14 10:31:00,63.0,51.0,-100.00,West,278,0.0,7.0,65,0.00,,,0.00,217.000000,,2013-02-14 20:31:00,
2013-02-14 11:02:00,65.0,52.0,-100.00,West,280,3.0,9.0,62,0.00,,,0.00,418.000000,,2013-02-14 21:02:00,
2013-02-14 11:11:00,65.0,52.0,-100.00,West,280,3.0,9.0,62,0.00,,,0.00,418.000000,,2013-02-14 21:11:00,
2013-02-14 11:21:00,65.0,52.0,-100.00,West,280,3.0,9.0,62,0.00,,,0.00,418.000000,,2013-02-14 21:21:00,
2013-02-14 11:31:00,65.0,52.0,-100.00,West,280,3.0,9.0,62,0.00,,,0.00,418.000000,,2013-02-14 21:31:00,
2013-02-14 11:52:00,67.0,53.0,-100.00,WSW,237,3.0,9.0,60,0.00,,,0.00,478.000000,,2013-02-14 21:52:00,
2013-02-14 12:02:00,67.0,53.0,-100.00,WSW,237,3.0,9.0,60,0.00,,,0.00,478.000000,,2013-02-14 22:02:00,
2013-02-14 12:11:00,67.0,53.0,-100.00,WSW,237,3.0,9.0,60,0.00,,,0.00,478.000000,,2013-02-14 22:11:00,
2013-02-14 12:21:00,67.0,53.0,-100.00,WSW,237,3.0,9.0,60,0.00,,,0.00,478.000000,,2013-02-14 22:21:00,
2013-02-14 12:31:00,67.0,53.0,-100.00,WSW,237,3.0,9.0,60,0.00,,,0.00,478.000000,,2013-02-14 22:31:00,
2013-02-14 13:01:00,67.0,55.0,-100.00,WNW,282,1.0,11.0,66,0.00,,,0.00,470.000000,,2013-02-14 23:01:00,
2013-02-14 13:11:00,67.0,55.0,-100.00,WNW,282,1.0,11.0,66,0.00,,,0.00,470.000000,,2013-02-14 23:11:00,
2013-02-14 13:21:00,67.0,55.0,-100.00,WNW,282,1.0,11.0,66,0.00,,,0.00,470.000000,,2013-02-14 23:21:00,
2013-02-14 13:31:00,67.0,55.0,-100.00,WNW,282,1.0,11.0,66,0.00,,,0.00,470.000000,,2013-02-14 23:31:00,
2013-02-14 14:01:00,66.0,56.0,-100.00,West,264,1.0,11.0,70,0.00,,,0.00,418.000000,,2013-02-15 00:01:00,
2013-02-14 14:11:00,66.0,56.0,-100.00,West,264,1.0,11.0,70,0.00,,,0.00,418.000000,,2013-02-15 00:11:00,
2013-02-14 14:21:00,66.0,56.0,-100.00,West,264,1.0,11.0,70,0.00,,,0.00,418.000000,,2013-02-15 00:21:00,
2013-02-14 14:31:00,66.0,56.0,-100.00,West,264,1.0,11.0,70,0.00,,,0.00,418.000000,,2013-02-15 00:31:00,
2013-02-14 14:52:00,65.0,56.0,-100.00,West,270,5.0,10.0,74,0.00,,,0.00,344.000000,,2013-02-15 00:52:00,
2013-02-14 15:01:00,65.0,56.0,-100.00,West,270,5.0,10.0,74,0.00,,,0.00,344.000000,,2013-02-15 01:01:00,
2013-02-14 15:11:00,65.0,56.0,-100.00,West,270,5.0,10.0,74,0.00,,,0.00,344.000000,,2013-02-15 01:11:00,
2013-02-14 15:21:00,65.0,56.0,-100.00,West,270,5.0,10.0,74,0.00,,,0.00,344.000000,,2013-02-15 01:21:00,
2013-02-14 15:31:00,65.0,56.0,-100.00,West,270,5.0,10.0,74,0.00,,,0.00,344.000000,,2013-02-15 01:31:00,
2013-02-14 16:01:00,69.0,59.0,-100.00,WNW,287,7.0,13.0,70,0.00,,,0.00,714.000000,,2013-02-15 02:01:00,
2013-02-14 16:11:00,69.0,59.0,-100.00,WNW,287,7.0,13.0,70,0.00,,,0.00,714.000000,,2013-02-15 02:11:00,
2013-02-14 16:21:00,69.0,59.0,-100.00,WNW,287,7.0,13.0,70,0.00,,,0.00,714.000000,,2013-02-15 02:21:00,
2013-02-14 16:31:00,69.0,59.0,-100.00,WNW,287,7.0,13.0,70,0.00,,,0.00,714.000000,,2013-02-15 02:31:00,
2013-02-14 17:02:00,66.0,57.0,-100.00,WNW,296,5.0,13.0,73,0.00,,,0.00,479.000000,,2013-02-15 03:02:00,
2013-02-14 17:11:00,66.0,57.0,-100.00,WNW,296,5.0,13.0,73,0.00,,,0.00,479.000000,,2013-02-15 03:11:00,
2013-02-14 17:21:00,66.0,57.0,-100.00,WNW,296,5.0,13.0,73,0.00,,,0.00,479.000000,,2013-02-15 03:21:00,
2013-02-14 17:32:00,66.0,57.0,-100.00,WNW,296,5.0,13.0,73,0.00,,,0.00,479.000000,,2013-02-15 03:32:00,
2013-02-14 18:01:00,66.0,55.0,-100.00,South,176,0.0,8.0,68,0.00,,,0.00,331.000000,,2013-02-15 04:01:00,
2013-02-14 18:11:00,66.0,55.0,-100.00,South,176,0.0,8.0,68,0.00,,,0.00,331.000000,,2013-02-15 04:11:00,
2013-02-14 18:21:00,66.0,55.0,-100.00,South,176,0.0,8.0,68,0.00,,,0.00,331.000000,,2013-02-15 04:21:00,
2013-02-14 18:31:00,66.0,55.0,-100.00,South,176,0.0,8.0,68,0.00,,,0.00,331.000000,,2013-02-15 04:31:00,
2013-02-14 19:02:00,64.0,56.0,-100.00,SSW,213,0.0,6.0,74,0.00,,,0.00,81.000000,,2013-02-15 05:02:00,
2013-02-14 19:11:00,64.0,56.0,-100.00,SSW,213,0.0,6.0,74,0.00,,,0.00,81.000000,,2013-02-15 05:11:00,
2013-02-14 19:22:00,64.0,56.0,-100.00,SSW,213,0.0,6.0,74,0.00,,,0.00,81.000000,,2013-02-15 05:22:00,
2013-02-14 19:32:00,64.0,56.0,-100.00,SSW,213,0.0,6.0,74,0.00,,,0.00,81.000000,,2013-02-15 05:32:00,
2013-02-14 20:02:00,60.0,52.0,-100.00,NNE,14,1.0,4.0,76,0.00,,,0.00,1.000000,,2013-02-15 06:02:00,
2013-02-14 20:11:00,60.0,52.0,-100.00,NNE,14,1.0,4.0,76,0.00,,,0.00,1.000000,,2013-02-15 06:11:00,
2013-02-14 20:21:00,60.0,52.0,-100.00,NNE,14,1.0,4.0,76,0.00,,,0.00,1.000000,,2013-02-15 06:21:00,
2013-02-14 20:31:00,60.0,52.0,-100.00,NNE,14,1.0,4.0,76,0.00,,,0.00,1.000000,,2013-02-15 06:31:00,
2013-02-14 21:01:00,61.0,52.0,-100.00,NE,35,1.0,10.0,71,0.00,,,0.00,0.000000,,2013-02-15 07:01:00,
2013-02-14 21:11:00,61.0,52.0,-100.00,NE,35,1.0,10.0,71,0.00,,,0.00,0.000000,,2013-02-15 07:11:00,
2013-02-14 21:21:00,61.0,52.0,-100.00,NE,35,1.0,10.0,71,0.00,,,0.00,0.000000,,2013-02-15 07:21:00,
2013-02-14 21:31:00,61.0,52.0,-100.00,NE,35,1.0,10.0,71,0.00,,,0.00,0.000000,,2013-02-15 07:31:00,
2013-02-14 22:01:00,60.0,51.0,-100.00,East,94,0.0,6.0,73,0.00,,,0.00,0.000000,,2013-02-15 08:01:00,
2013-02-14 22:11:00,60.0,51.0,-100.00,East,94,0.0,6.0,73,0.00,,,0.00,0.000000,,2013-02-15 08:11:00,
2013-02-14 22:21:00,60.0,51.0,-100.00,East,94,0.0,6.0,73,0.00,,,0.00,0.000000,,2013-02-15 08:21:00,
2013-02-14 22:31:00,60.0,51.0,-100.00,East,94,0.0,6.0,73,0.00,,,0.00,0.000000,,2013-02-15 08:31:00,
2013-02-14 23:01:00,61.0,53.0,-100.00,NE,43,0.0,7.0,76,0.00,,,0.00,0.000000,,2013-02-15 09:01:00,
2013-02-14 23:12:00,61.0,53.0,-100.00,NE,43,0.0,7.0,76,0.00,,,0.00,0.000000,,2013-02-15 09:12:00,
2013-02-14 23:21:00,61.0,53.0,-100.00,NE,43,0.0,7.0,76,0.00,,,0.00,0.000000,,2013-02-15 09:21:00,
2013-02-14 23:31:00,61.0,53.0,-100.00,NE,43,0.0,7.0,76,0.00,,,0.00,0.000000,,2013-02-15 09:31:00,